KGCN

Details ICAO KGCN (GCN)
Name GRAND CANYON NATIONAL PARK
Region United States
Timezone America/Phoenix (UTC-7.0)
Plans Departing 69
Arriving 94
Stats Elevation 6,609 ft / 2,014 m (AMSL)
Location 35.952369° -112.146919°
Runways 1
Magnetic Variation 10.745° E
Sunrise 2017-12-11 14:30:36 UTC / 2017-12-11 07:30:36 Local
Sunset 2017-12-12 00:16:16 UTC / 2017-12-11 17:16:16 Local
Advertisement - Login to hide

Runways

ID Width Length Bearing (true) Bearing (mag) Surface Threshold Offset Overrun Length
03 151 ft / 46 m 9,008 ft / 2,746 m 40.55° 29.81° Asphalt 0 ft / 0 m 0 ft / 0 m
21 151 ft / 46 m 9,008 ft / 2,746 m 220.57° 209.83° Asphalt 0 ft / 0 m 0 ft / 0 m

Approach Navaids

Runway Type Ident Frequency Range Bearing (true) Bearing (mag) Slope Elevation
03 Localiser IGCN 108.90 MHz 18 nm / 33 km 40.52° 29.77° - 6,609 ft / 2,014 m (AMSL)
03 Glidescope IGCN 108.90 MHz 10 nm / 19 km 40.56° 29.82° 3.00° 6,535 ft / 1,992 m (AMSL)
03 DME IGCN 108.90 MHz 18 nm / 33 km - - - 6,609 ft / 2,014 m (AMSL)

Map

Weather


0- 5 10 15 20 25 30 35+ Temperature / ° C

Clouds and Precipitation
Forecast for 2017-12-11 12:00 UTC. Updated 28 minutes ago

Ground ~20,000 ft ~40,000 ft Winds

METAR

KGCN 111054Z AUTO 04003KT 10SM CLR M07/M24 A3048 RMK AO2 SLP315 T10721239

TAF

TAF KGCN 110520Z 1106/1206 06011KT P6SM SCT250= TAF KSHR 110520Z 1106/1206 34009KT P6SM BKN150 FM110900 30008KT P6SM SCT150 FM111600 34010KT P6SM FEW150 FM120000 VRB03KT P6SM SKC

Frequencies

Recorded 124.30 MHz ASOS
Unicom 122.95 MHz UNICOM
Tower 119.00 MHz CANYON TWR
Unicom 119.00 MHz CTAF
Ground 121.90 MHz GND
Warning: Do not use this data for real-world aviation or navigation. No guarantee of current accuracy is given.